createdAt,value
2023-03-26T00:01:41.830Z,81.07
2023-03-26T00:04:10.830Z,80.50
2023-03-26T00:06:40.640Z,79.48
2023-03-26T00:09:13.621Z,80.02
2023-03-26T00:11:43.750Z,80.13
2023-03-26T00:14:14.264Z,80.48
2023-03-26T00:16:42.974Z,81.16
2023-03-26T00:19:12.875Z,81.86
2023-03-26T00:21:41.705Z,82.33
2023-03-26T00:24:15.488Z,82.65
2023-03-26T00:26:44.777Z,82.60
2023-03-26T00:29:15.875Z,82.54
2023-03-26T00:31:46.604Z,82.05
2023-03-26T00:34:18.812Z,83.12
2023-03-26T00:36:47.646Z,83.71
2023-03-26T00:39:18.097Z,84.78
2023-03-26T00:41:46.524Z,85.08
2023-03-26T00:44:14.907Z,85.56
2023-03-26T00:46:43.010Z,85.21
2023-03-26T00:49:14.970Z,85.33
2023-03-26T00:51:43.830Z,85.08
2023-03-26T00:54:12.942Z,85.92
2023-03-26T00:56:41.446Z,85.74
2023-03-26T00:59:09.992Z,86.13
2023-03-26T01:01:38.650Z,86.22
2023-03-26T01:04:31.817Z,86.19
2023-03-26T01:07:11.473Z,86.42
2023-03-26T01:09:43.079Z,87.49
2023-03-26T01:12:17.223Z,87.11
2023-03-26T01:14:47.901Z,88.26
2023-03-26T01:17:18.004Z,88.62
2023-03-26T01:20:15.265Z,89.80
2023-03-26T01:22:49.754Z,90.48
2023-03-26T01:25:19.089Z,90.67
2023-03-26T01:27:52.171Z,90.89
2023-03-26T01:30:35.399Z,90.50
2023-03-26T01:33:03.853Z,89.92
2023-03-26T01:35:35.393Z,90.44
2023-03-26T01:38:23.376Z,90.93
2023-03-26T01:41:11.000Z,91.40
2023-03-26T01:44:00.883Z,91.43
2023-03-26T01:46:36.409Z,91.65
2023-03-26T01:49:06.353Z,92.96
2023-03-26T01:51:35.876Z,94.47
2023-03-26T01:54:08.903Z,97.21
2023-03-26T01:57:01.628Z,98.13
2023-03-26T02:00:12.271Z,99.21
2023-03-26T02:03:18.005Z,100.00
2023-03-26T02:05:56.725Z,100.00
2023-03-26T02:08:59.523Z,100.00
2023-03-26T02:11:35.535Z,100.00
2023-03-26T02:14:07.074Z,100.00
2023-03-26T02:16:35.544Z,100.00
2023-03-26T02:19:04.573Z,100.00
2023-03-26T02:21:34.240Z,100.00
2023-03-26T02:24:03.454Z,100.00
2023-03-26T02:26:35.974Z,100.00
2023-03-26T02:29:19.524Z,100.00
2023-03-26T02:31:48.987Z,100.00
2023-03-26T02:34:17.538Z,100.00
2023-03-26T02:36:53.250Z,100.00
2023-03-26T02:39:22.180Z,100.00
2023-03-26T02:41:57.802Z,100.00
2023-03-26T02:44:27.514Z,100.00
2023-03-26T02:47:01.940Z,100.00
2023-03-26T02:49:49.053Z,100.00
2023-03-26T02:52:23.269Z,100.00
2023-03-26T02:54:52.160Z,100.00
2023-03-26T02:57:27.849Z,100.00
2023-03-26T03:00:15.648Z,100.00
2023-03-26T03:02:48.439Z,100.00
2023-03-26T03:05:43.411Z,100.00
2023-03-26T03:08:18.566Z,100.00
2023-03-26T03:11:11.929Z,100.00
2023-03-26T03:13:49.832Z,100.00
2023-03-26T03:16:27.590Z,100.00
2023-03-26T03:18:58.146Z,100.00
2023-03-26T03:21:34.327Z,100.00
2023-03-26T03:24:03.132Z,100.00
2023-03-26T03:26:36.719Z,100.00
2023-03-26T03:29:28.390Z,100.00
2023-03-26T03:31:57.337Z,100.00
2023-03-26T03:34:46.030Z,100.00
2023-03-26T03:37:14.332Z,100.00
2023-03-26T03:39:48.185Z,100.00
2023-03-26T03:42:19.222Z,100.00
2023-03-26T03:44:48.007Z,100.00
2023-03-26T03:47:48.866Z,100.00
2023-03-26T03:50:21.325Z,100.00
2023-03-26T03:53:01.280Z,100.00
2023-03-26T03:55:30.171Z,100.00
2023-03-26T03:57:58.548Z,100.00
2023-03-26T04:00:27.442Z,100.00
2023-03-26T04:03:09.221Z,100.00
2023-03-26T04:05:37.709Z,100.00
2023-03-26T04:08:06.539Z,100.00
2023-03-26T04:10:46.250Z,100.00
2023-03-26T04:13:15.955Z,100.00
2023-03-26T04:16:05.193Z,100.00
2023-03-26T04:18:33.614Z,100.00
2023-03-26T04:21:09.162Z,100.00
2023-03-26T04:23:37.324Z,100.00
2023-03-26T04:26:17.394Z,100.00
2023-03-26T04:29:12.920Z,100.00
2023-03-26T04:31:43.377Z,100.00
2023-03-26T04:34:26.372Z,100.00
2023-03-26T04:37:05.264Z,100.00
2023-03-26T04:39:36.514Z,100.00
2023-03-26T04:42:33.601Z,100.00
2023-03-26T04:45:17.695Z,100.00
2023-03-26T04:47:48.938Z,100.00
2023-03-26T04:50:17.552Z,100.00
2023-03-26T04:52:46.742Z,100.00
2023-03-26T04:56:01.830Z,100.00
2023-03-26T04:58:50.578Z,100.00
2023-03-26T05:01:20.137Z,100.00
2023-03-26T05:03:48.602Z,100.00
2023-03-26T05:06:18.008Z,100.00
2023-03-26T05:08:46.544Z,100.00
2023-03-26T05:11:22.506Z,100.00
2023-03-26T05:13:50.788Z,100.00
2023-03-26T05:16:22.033Z,100.00
2023-03-26T05:18:59.311Z,100.00
2023-03-26T05:21:30.825Z,100.00
2023-03-26T05:23:59.660Z,100.00
2023-03-26T05:26:29.295Z,100.00
2023-03-26T05:28:57.752Z,100.00
2023-03-26T05:31:31.352Z,100.00
2023-03-26T05:34:00.764Z,100.00
2023-03-26T05:36:29.450Z,100.00
2023-03-26T05:39:17.068Z,100.00
2023-03-26T05:42:04.184Z,100.00
2023-03-26T05:44:42.909Z,100.00
2023-03-26T05:47:18.456Z,100.00
2023-03-26T05:49:47.150Z,100.00
2023-03-26T05:52:19.125Z,100.00
2023-03-26T05:55:10.630Z,100.00
2023-03-26T05:57:58.160Z,100.00
2023-03-26T06:01:06.041Z,100.00
2023-03-26T06:03:47.365Z,100.00
2023-03-26T06:06:20.739Z,100.00
2023-03-26T06:09:02.345Z,100.00
2023-03-26T06:11:32.464Z,100.00
2023-03-26T06:14:02.374Z,100.00
2023-03-26T06:16:31.339Z,100.00
2023-03-26T06:19:28.921Z,100.00
2023-03-26T06:22:01.399Z,100.00
2023-03-26T06:24:39.501Z,100.00
2023-03-26T06:27:26.522Z,100.00
2023-03-26T06:30:15.592Z,100.00
2023-03-26T06:33:08.844Z,100.00
2023-03-26T06:35:45.618Z,100.00
2023-03-26T06:38:15.130Z,100.00
2023-03-26T06:40:44.018Z,100.00
2023-03-26T06:43:36.466Z,100.00
2023-03-26T06:46:23.711Z,100.00
2023-03-26T06:49:11.316Z,100.00
2023-03-26T06:51:52.086Z,100.00
2023-03-26T06:54:39.304Z,100.00
2023-03-26T06:57:28.781Z,100.00
2023-03-26T07:00:29.724Z,100.00
2023-03-26T07:03:17.453Z,100.00
2023-03-26T07:06:04.829Z,100.00
2023-03-26T07:08:51.704Z,100.00
2023-03-26T07:11:40.360Z,100.00
2023-03-26T07:14:44.163Z,100.00
2023-03-26T07:17:28.230Z,100.00
2023-03-26T07:20:08.885Z,100.00
2023-03-26T07:22:38.173Z,100.00
2023-03-26T07:25:30.105Z,100.00
2023-03-26T07:28:34.017Z,100.00
2023-03-26T07:31:37.652Z,100.00
2023-03-26T07:34:39.815Z,100.00
2023-03-26T07:37:44.105Z,100.00
2023-03-26T07:40:57.652Z,100.00
2023-03-26T07:44:08.321Z,100.00
2023-03-26T07:46:37.521Z,100.00
2023-03-26T07:49:24.714Z,100.00
2023-03-26T07:52:13.907Z,100.00
2023-03-26T07:54:56.953Z,100.00
2023-03-26T07:58:23.713Z,100.00
2023-03-26T08:01:52.297Z,100.00
2023-03-26T08:04:48.680Z,100.00
2023-03-26T08:07:58.761Z,100.00
2023-03-26T08:11:03.900Z,100.00
2023-03-26T08:13:45.185Z,100.00
2023-03-26T08:16:23.300Z,100.00
2023-03-26T08:19:03.654Z,100.00
2023-03-26T08:21:48.825Z,100.00
2023-03-26T08:24:39.182Z,100.00
2023-03-26T08:27:29.642Z,100.00
2023-03-26T08:30:08.543Z,99.80
2023-03-26T08:32:37.664Z,100.00
2023-03-26T08:35:06.738Z,99.02
2023-03-26T08:37:35.314Z,98.90
2023-03-26T08:40:03.895Z,95.67
2023-03-26T08:42:56.956Z,88.44
2023-03-26T08:45:53.913Z,88.18
2023-03-26T08:48:55.064Z,78.56
2023-03-26T08:51:41.878Z,76.18
2023-03-26T08:54:25.604Z,67.48
2023-03-26T08:57:15.930Z,69.26
2023-03-26T09:00:06.101Z,64.49
2023-03-26T09:02:53.249Z,61.33
2023-03-26T09:05:21.591Z,60.90
2023-03-26T09:07:59.283Z,57.48
2023-03-26T09:10:46.831Z,59.81
2023-03-26T09:13:44.789Z,55.46
2023-03-26T09:16:28.288Z,54.69
2023-03-26T09:19:18.213Z,52.04
2023-03-26T09:22:06.663Z,51.94
2023-03-26T09:24:58.804Z,51.79
2023-03-26T09:28:10.598Z,51.15
2023-03-26T09:30:57.319Z,48.67
2023-03-26T09:33:28.626Z,48.40
2023-03-26T09:36:23.135Z,48.45
2023-03-26T09:39:00.503Z,48.15
2023-03-26T09:42:01.161Z,48.04
2023-03-26T09:44:36.096Z,46.68
2023-03-26T09:47:29.861Z,44.98
2023-03-26T09:50:10.657Z,46.19
2023-03-26T09:52:41.990Z,46.65
2023-03-26T09:55:44.895Z,45.91
2023-03-26T09:58:33.635Z,43.24
2023-03-26T10:01:16.395Z,41.67
2023-03-26T10:03:53.970Z,42.04
2023-03-26T10:06:41.580Z,38.66
2023-03-26T10:09:51.222Z,36.74
2023-03-26T10:12:20.205Z,36.47
2023-03-26T10:15:10.833Z,36.59
2023-03-26T10:18:02.498Z,35.28
2023-03-26T10:20:57.863Z,34.43
2023-03-26T10:23:45.380Z,35.28
2023-03-26T10:26:30.862Z,35.79
2023-03-26T10:29:15.832Z,36.53
2023-03-26T10:31:56.243Z,34.36
2023-03-26T10:35:06.547Z,34.84
2023-03-26T10:37:56.230Z,32.33
2023-03-26T10:40:35.778Z,32.44
2023-03-26T10:43:23.100Z,31.80
2023-03-26T10:46:10.799Z,32.16
2023-03-26T10:49:20.501Z,32.49
2023-03-26T10:51:57.314Z,34.21
2023-03-26T10:54:44.089Z,33.16
2023-03-26T10:57:43.983Z,32.86
2023-03-26T11:00:25.369Z,34.00
2023-03-26T11:03:18.424Z,32.16
2023-03-26T11:05:52.616Z,31.43
2023-03-26T11:08:44.167Z,33.25
2023-03-26T11:11:24.625Z,33.96
2023-03-26T11:14:35.169Z,35.07
2023-03-26T11:17:39.620Z,34.58
2023-03-26T11:20:13.831Z,34.80
2023-03-26T11:23:00.846Z,35.04
2023-03-26T11:25:38.238Z,33.78
2023-03-26T11:29:03.690Z,34.15
2023-03-26T11:31:58.556Z,35.06
2023-03-26T11:34:39.099Z,34.72
2023-03-26T11:37:16.212Z,35.69
2023-03-26T11:39:55.221Z,36.74
2023-03-26T11:42:25.877Z,36.65
2023-03-26T11:45:05.933Z,36.63
2023-03-26T11:47:43.725Z,37.20
2023-03-26T11:50:27.258Z,35.63
2023-03-26T11:53:20.730Z,35.27
2023-03-26T11:55:54.015Z,34.30
2023-03-26T11:59:07.753Z,32.60
2023-03-26T12:01:58.188Z,31.91
2023-03-26T12:04:38.207Z,30.63
2023-03-26T12:07:33.418Z,30.59
2023-03-26T12:10:17.953Z,29.28
2023-03-26T12:12:48.912Z,29.80
2023-03-26T12:15:20.254Z,29.77
2023-03-26T12:17:58.115Z,29.60
2023-03-26T12:20:26.700Z,29.94
2023-03-26T12:22:59.661Z,29.89
2023-03-26T12:25:38.961Z,27.92
2023-03-26T12:28:13.929Z,26.79
2023-03-26T12:30:54.394Z,26.51
2023-03-26T12:33:28.087Z,26.36
2023-03-26T12:36:01.160Z,28.27
2023-03-26T12:38:37.455Z,28.25
2023-03-26T12:44:43.720Z,28.20
2023-03-26T12:44:56.579Z,26.84
2023-03-26T12:47:59.508Z,27.35
2023-03-26T12:50:34.258Z,28.04
2023-03-26T12:53:12.838Z,28.04
2023-03-26T12:56:06.910Z,29.11
2023-03-26T12:58:45.130Z,29.41
2023-03-26T13:01:16.867Z,29.72
2023-03-26T13:04:14.365Z,29.39
2023-03-26T13:07:01.646Z,28.63
2023-03-26T13:09:53.228Z,28.25
2023-03-26T13:12:35.712Z,28.66
2023-03-26T13:15:18.130Z,29.31
2023-03-26T13:17:56.152Z,29.78
2023-03-26T13:20:49.197Z,29.38
2023-03-26T13:23:27.903Z,29.17
2023-03-26T13:26:24.051Z,29.47
2023-03-26T13:28:55.685Z,29.45
2023-03-26T13:31:49.368Z,30.20
2023-03-26T13:34:23.270Z,30.00
2023-03-26T13:37:04.432Z,29.44
2023-03-26T13:40:10.716Z,30.18
2023-03-26T13:42:47.830Z,29.11
2023-03-26T13:45:43.008Z,29.37
2023-03-26T13:48:25.828Z,28.91
2023-03-26T13:51:02.087Z,29.40
2023-03-26T13:53:43.889Z,29.08
2023-03-26T13:56:21.070Z,28.97
2023-03-26T13:59:34.711Z,29.22
2023-03-26T14:02:16.330Z,29.50
2023-03-26T14:04:51.089Z,29.91
2023-03-26T14:07:26.597Z,30.70
2023-03-26T14:10:08.680Z,31.29
2023-03-26T14:13:11.067Z,31.75
2023-03-26T14:15:59.156Z,31.93
2023-03-26T14:18:52.597Z,32.25
2023-03-26T14:21:29.434Z,32.95
2023-03-26T14:24:09.597Z,33.56
2023-03-26T14:27:08.997Z,33.70
2023-03-26T14:29:57.133Z,33.89
2023-03-26T14:33:04.402Z,34.59
2023-03-26T14:35:47.458Z,35.20
2023-03-26T14:38:21.871Z,35.40
2023-03-26T14:40:56.466Z,35.58
2023-03-26T14:43:27.742Z,35.86
2023-03-26T14:46:14.474Z,36.03
2023-03-26T14:49:05.969Z,36.39
2023-03-26T14:52:02.531Z,36.42
2023-03-26T14:54:37.253Z,36.65
2023-03-26T14:57:32.792Z,36.93
2023-03-26T15:00:39.219Z,37.10
2023-03-26T15:03:10.324Z,37.48
2023-03-26T15:05:38.770Z,37.69
2023-03-26T15:08:33.262Z,37.13
2023-03-26T15:11:14.165Z,37.40
2023-03-26T15:13:45.370Z,37.67
2023-03-26T15:16:41.591Z,37.33
2023-03-26T15:19:43.162Z,37.41
2023-03-26T15:22:38.772Z,36.80
2023-03-26T15:25:24.970Z,36.80
2023-03-26T15:28:12.396Z,36.33
2023-03-26T15:30:59.306Z,36.61
2023-03-26T15:33:48.893Z,36.48
2023-03-26T15:36:21.771Z,36.75
2023-03-26T15:38:59.776Z,36.66
2023-03-26T15:41:56.515Z,36.65
2023-03-26T15:44:43.752Z,37.03
2023-03-26T15:47:52.491Z,37.29
2023-03-26T15:50:39.587Z,37.60
2023-03-26T15:53:33.769Z,37.71
2023-03-26T15:56:15.166Z,37.85
2023-03-26T15:58:46.326Z,38.11
2023-03-26T16:01:46.463Z,37.87
2023-03-26T16:04:36.424Z,37.92
2023-03-26T16:07:11.443Z,37.91
2023-03-26T16:10:12.800Z,37.98
2023-03-26T16:12:54.094Z,38.08
2023-03-26T16:15:31.993Z,38.28
2023-03-26T16:18:22.511Z,38.50
2023-03-26T16:21:04.531Z,38.50
2023-03-26T16:23:55.477Z,38.63
2023-03-26T16:26:45.687Z,38.65
2023-03-26T16:29:18.408Z,38.76
2023-03-26T16:32:28.918Z,38.87
2023-03-26T16:35:05.390Z,39.17
2023-03-26T16:37:40.016Z,39.42
2023-03-26T16:40:23.680Z,39.61
2023-03-26T16:43:16.921Z,39.77
2023-03-26T16:46:17.376Z,39.79
2023-03-26T16:49:24.533Z,39.83
2023-03-26T16:52:20.669Z,39.97
2023-03-26T16:55:16.390Z,40.25
2023-03-26T16:57:53.372Z,40.39
2023-03-26T17:00:45.088Z,40.60
2023-03-26T17:03:32.185Z,40.91
2023-03-26T17:06:12.771Z,40.78
2023-03-26T17:08:59.296Z,40.91
2023-03-26T17:11:58.299Z,40.94
2023-03-26T17:15:06.215Z,41.10
2023-03-26T17:18:09.259Z,42.91
2023-03-26T17:20:59.867Z,44.93
2023-03-26T17:23:49.981Z,45.32
2023-03-26T17:26:39.841Z,46.58
2023-03-26T17:29:08.219Z,47.75
2023-03-26T17:31:58.927Z,48.18
2023-03-26T17:34:40.268Z,48.44
2023-03-26T17:37:35.742Z,48.82
2023-03-26T17:40:12.580Z,49.37
2023-03-26T17:43:01.870Z,49.63
2023-03-26T17:45:35.570Z,50.21
2023-03-26T17:48:10.923Z,50.19
2023-03-26T17:50:48.730Z,50.27
2023-03-26T17:53:37.138Z,49.71
2023-03-26T17:56:15.068Z,49.75
2023-03-26T17:58:48.657Z,49.64
2023-03-26T18:01:27.390Z,49.67
2023-03-26T18:04:00.191Z,49.81
2023-03-26T18:06:50.064Z,49.85
2023-03-26T18:09:49.567Z,49.77
2023-03-26T18:12:24.505Z,49.98
2023-03-26T18:15:11.419Z,50.23
2023-03-26T18:17:44.492Z,50.33
2023-03-26T18:20:25.227Z,50.37
2023-03-26T18:22:54.683Z,50.68
2023-03-26T18:25:32.279Z,52.50
2023-03-26T18:28:02.138Z,52.63
2023-03-26T18:30:30.673Z,52.97
2023-03-26T18:33:05.410Z,55.22
2023-03-26T18:35:46.338Z,56.56
2023-03-26T18:38:36.438Z,57.91
2023-03-26T18:41:30.466Z,57.90
2023-03-26T18:44:04.864Z,58.00
2023-03-26T18:46:34.301Z,58.39
2023-03-26T18:49:03.255Z,60.84
2023-03-26T18:51:36.494Z,62.79
2023-03-26T18:54:21.616Z,62.69
2023-03-26T18:56:51.372Z,64.99
2023-03-26T18:59:32.226Z,64.27
2023-03-26T19:02:05.625Z,63.96
2023-03-26T19:04:35.212Z,64.67
2023-03-26T19:07:10.063Z,65.51
2023-03-26T19:09:39.070Z,69.57
2023-03-26T19:12:26.052Z,70.03
2023-03-26T19:15:08.021Z,72.63
2023-03-26T19:17:48.447Z,71.14
2023-03-26T19:20:22.731Z,69.93
2023-03-26T19:22:52.757Z,69.64
2023-03-26T19:25:39.040Z,69.30
2023-03-26T19:28:17.236Z,70.21
2023-03-26T19:30:46.157Z,69.47
2023-03-26T19:33:18.571Z,69.20
2023-03-26T19:36:01.900Z,71.47
2023-03-26T19:38:39.238Z,75.37
2023-03-26T19:41:20.764Z,76.56
2023-03-26T19:43:55.832Z,77.38
2023-03-26T19:46:26.677Z,79.68
2023-03-26T19:48:58.168Z,80.30
2023-03-26T19:51:37.382Z,81.48
2023-03-26T19:54:16.654Z,79.76
2023-03-26T19:56:44.831Z,80.16
2023-03-26T19:59:14.410Z,79.75
2023-03-26T20:01:42.688Z,80.16
2023-03-26T20:04:12.491Z,80.99
2023-03-26T20:06:44.217Z,82.74
2023-03-26T20:09:13.744Z,81.91
2023-03-26T20:11:42.559Z,82.58
2023-03-26T20:14:17.223Z,81.32
2023-03-26T20:16:46.168Z,81.52
2023-03-26T20:19:15.566Z,81.22
2023-03-26T20:21:45.009Z,81.76
2023-03-26T20:24:16.510Z,81.88
2023-03-26T20:26:46.664Z,82.60
2023-03-26T20:29:15.636Z,83.07
2023-03-26T20:31:44.460Z,82.95
2023-03-26T20:34:19.865Z,83.12
2023-03-26T20:36:54.455Z,82.89
2023-03-26T20:39:25.418Z,84.14
2023-03-26T20:41:55.061Z,85.99
2023-03-26T20:44:23.831Z,85.71
2023-03-26T20:46:52.635Z,85.46
2023-03-26T20:49:22.383Z,85.63
2023-03-26T20:51:51.013Z,86.07
2023-03-26T20:54:25.479Z,85.54
2023-03-26T20:56:54.875Z,88.30
2023-03-26T20:59:27.074Z,87.20
2023-03-26T21:01:58.099Z,87.60
2023-03-26T21:04:27.802Z,87.93
2023-03-26T21:07:07.270Z,89.02
2023-03-26T21:09:45.027Z,88.24
2023-03-26T21:12:30.474Z,88.03
2023-03-26T21:14:59.597Z,89.23
2023-03-26T21:17:28.574Z,90.37
2023-03-26T21:20:00.539Z,89.45
2023-03-26T21:22:34.027Z,89.33
2023-03-26T21:25:05.778Z,89.10
2023-03-26T21:27:52.383Z,91.29
2023-03-26T21:30:21.071Z,90.37
2023-03-26T21:32:49.948Z,90.80
2023-03-26T21:35:18.866Z,91.30
2023-03-26T21:37:50.804Z,91.23
2023-03-26T21:40:21.184Z,91.68
2023-03-26T21:42:52.275Z,92.41
2023-03-26T21:45:22.099Z,92.17
2023-03-26T21:47:50.945Z,92.87
2023-03-26T21:50:22.260Z,93.47
2023-03-26T21:52:51.868Z,93.15
2023-03-26T21:55:22.977Z,94.04
2023-03-26T21:58:04.220Z,94.18
2023-03-26T22:00:46.088Z,95.21
2023-03-26T22:03:59.312Z,96.16
2023-03-26T22:06:56.863Z,97.24
2023-03-26T22:09:33.931Z,97.76
2023-03-26T22:12:05.745Z,98.55
2023-03-26T22:14:34.610Z,99.08
2023-03-26T22:17:03.075Z,99.15
2023-03-26T22:19:31.724Z,98.38
2023-03-26T22:22:00.755Z,98.54
2023-03-26T22:24:29.137Z,98.14
2023-03-26T22:26:57.310Z,98.21
2023-03-26T22:29:25.796Z,98.59
2023-03-26T22:31:53.967Z,98.35
2023-03-26T22:34:23.784Z,97.85
2023-03-26T22:36:53.492Z,98.01
2023-03-26T22:39:21.971Z,98.73
2023-03-26T22:41:50.299Z,98.82
2023-03-26T22:44:20.476Z,98.27
2023-03-26T22:46:51.725Z,98.26
2023-03-26T22:49:21.904Z,98.81
2023-03-26T22:51:50.930Z,99.44
2023-03-26T22:54:19.417Z,98.63
2023-03-26T22:56:48.020Z,98.77
2023-03-26T22:59:16.478Z,99.45
2023-03-26T23:01:45.764Z,99.91
2023-03-26T23:04:31.658Z,99.53
2023-03-26T23:07:00.883Z,100.00
2023-03-26T23:09:29.757Z,100.00
2023-03-26T23:11:57.960Z,100.00
2023-03-26T23:14:26.524Z,100.00
2023-03-26T23:16:57.557Z,100.00
2023-03-26T23:19:25.918Z,100.00
2023-03-26T23:21:54.117Z,100.00
2023-03-26T23:24:22.393Z,100.00
2023-03-26T23:26:51.374Z,100.00
2023-03-26T23:29:20.105Z,100.00
2023-03-26T23:31:48.431Z,100.00
2023-03-26T23:34:17.247Z,100.00
2023-03-26T23:36:45.717Z,100.00
2023-03-26T23:39:14.106Z,100.00
2023-03-26T23:41:42.583Z,100.00
2023-03-26T23:44:14.641Z,100.00
2023-03-26T23:46:44.844Z,100.00
2023-03-26T23:49:13.860Z,100.00
2023-03-26T23:51:42.342Z,100.00
2023-03-26T23:54:11.844Z,100.00
2023-03-26T23:56:40.379Z,100.00
2023-03-26T23:59:08.916Z,100.00
